Time;durP1;ratioP1;P1;durP2;ratioP2;P2;SDS_P1;SDS_P2;PMS_P1;PMS_P2;Temp;Humidity;BMP_temperature;BMP_pressure;BME280_temperature;BME280_humidity;BME280_pressure;Samples;Min_cycle;Max_cycle;Signal;HPM_P1;HPM_P2
2021/12/12 00:01:51;;;;;;;;;16.00;12.50;;;;;9.16;78.09;101562.50;5073737;28;45613;-81
2021/12/12 00:04:20;;;;;;;;;11.50;9.75;;;;;8.97;78.36;101525.13;5073543;27;46852;-80
2021/12/12 00:06:52;;;;;;;;;9.75;7.75;;;;;9.14;78.16;101548.66;5077590;28;45954;-80
2021/12/12 00:09:29;;;;;;;;;15.00;12.00;;;;;9.05;78.39;101542.13;5077628;28;45963;-80
2021/12/12 00:11:55;;;;;;;;;11.75;11.00;;;;;9.11;78.51;101552.28;5078354;28;45736;-82
2021/12/12 00:14:27;;;;;;;;;14.25;11.50;;;;;9.11;78.13;101552.28;5077589;28;45568;-81
2021/12/12 00:16:54;;;;;;;;;11.25;9.75;;;;;9.10;78.45;101549.72;5081288;28;46811;-81
2021/12/12 00:19:22;;;;;;;;;11.75;10.00;;;;;9.06;78.47;101535.97;5097708;28;45182;-80
2021/12/12 00:21:51;;;;;;;;;14.75;11.00;;;;;9.11;78.64;101533.97;5085115;28;45651;-80
2021/12/12 00:24:17;;;;;;;;;14.00;11.25;;;;;8.98;78.82;101514.59;5085464;28;45588;-80
2021/12/12 00:26:46;;;;;;;;;14.50;13.00;;;;;9.11;78.69;101533.13;5089834;28;46027;-80
2021/12/12 00:29:14;;;;;;;;;14.50;13.00;;;;;9.12;78.74;101534.84;5090493;28;45879;-80
2021/12/12 00:31:40;;;;;;;;;16.75;12.25;;;;;9.03;78.59;101523.03;5093447;28;45558;-81
2021/12/12 00:34:06;;;;;;;;;19.00;15.75;;;;;9.08;79.00;101534.13;5095667;28;45824;-82
2021/12/12 00:36:34;;;;;;;;;15.25;13.25;;;;;9.06;78.89;101529.91;5096308;28;46386;-79
2021/12/12 00:39:05;;;;;;;;;22.00;15.25;;;;;9.08;78.96;101538.50;5085805;28;45850;-81
2021/12/12 00:41:53;;;;;;;;;15.00;15.00;;;;;9.10;79.04;101537.50;5085104;28;45608;-80
2021/12/12 00:44:19;;;;;;;;;16.25;12.00;;;;;9.10;78.81;101542.75;5087653;28;46650;-82
2021/12/12 00:46:45;;;;;;;;;15.75;13.00;;;;;8.89;78.78;101511.59;5089296;28;46007;-80
2021/12/12 00:49:12;;;;;;;;;14.00;13.00;;;;;9.11;79.03;101540.97;5090719;28;45649;-80
2021/12/12 00:51:41;;;;;;;;;12.50;11.50;;;;;8.99;79.04;101539.81;5082056;28;45688;-81
2021/12/12 00:54:07;;;;;;;;;14.25;12.50;;;;;9.05;79.30;101538.66;5078782;28;46861;-80
2021/12/12 00:56:33;;;;;;;;;13.25;13.25;;;;;9.04;79.17;101532.59;5079018;28;45996;-80
2021/12/12 00:58:59;;;;;;;;;12.75;11.00;;;;;9.06;79.09;101543.81;5077253;28;45616;-80
2021/12/12 01:01:29;;;;;;;;;13.75;11.00;;;;;9.00;79.21;101530.22;5076469;28;45543;-80
2021/12/12 01:04:08;;;;;;;;;14.50;12.00;;;;;9.09;79.36;101527.97;5076224;28;46500;-80
2021/12/12 01:06:34;;;;;;;;;13.00;10.50;;;;;9.09;79.09;101532.34;5076014;28;46102;-79
2021/12/12 01:09:04;;;;;;;;;12.75;12.00;;;;;9.09;79.52;101534.97;5075963;28;45632;-80
2021/12/12 01:11:39;;;;;;;;;9.75;9.75;;;;;9.08;79.29;101528.88;5076047;28;45772;-79
2021/12/12 01:14:08;;;;;;;;;11.75;11.00;;;;;9.07;79.47;101532.41;5079326;28;46366;-80
2021/12/12 01:16:49;;;;;;;;;11.00;11.00;;;;;9.07;79.79;101531.59;5079333;28;47164;-80
2021/12/12 01:19:22;;;;;;;;;10.75;10.75;;;;;9.06;79.72;101528.13;5079691;28;45643;-81
2021/12/12 01:21:53;;;;;;;;;14.00;11.75;;;;;9.06;79.83;101528.13;5078182;28;45803;-80
2021/12/12 01:24:24;;;;;;;;;8.75;8.75;;;;;9.06;79.91;101524.69;5075499;28;45593;-80
2021/12/12 01:26:50;;;;;;;;;11.00;10.00;;;;;9.06;79.74;101520.31;5075240;28;46014;-81
2021/12/12 01:29:16;;;;;;;;;8.00;8.00;;;;;9.06;79.81;101528.13;5075341;28;46018;-80
2021/12/12 01:31:47;;;;;;;;;11.75;10.50;;;;;9.03;79.74;101520.44;5075492;28;45577;-80
2021/12/12 01:34:17;;;;;;;;;10.50;8.25;;;;;9.05;79.82;101520.38;5074518;28;45774;-79
2021/12/12 01:39:22;;;;;;;;;10.75;10.75;;;;;9.06;80.02;101541.22;5074711;28;45569;-79
2021/12/12 01:42:03;;;;;;;;;11.00;9.75;;;;;9.06;79.73;101549.06;5073495;28;45953;-80
2021/12/12 01:44:31;;;;;;;;;10.50;9.75;;;;;9.05;79.79;101534.28;5074969;28;45761;-79
2021/12/12 01:47:12;;;;;;;;;8.50;7.50;;;;;9.07;80.09;101549.91;5074655;28;45669;-81
2021/12/12 01:49:41;;;;;;;;;7.75;7.75;;;;;9.06;80.06;101549.06;5074853;28;45921;-80
2021/12/12 01:52:12;;;;;;;;;7.25;7.25;;;;;9.01;80.02;101539.75;5075407;28;45789;-81
2021/12/12 01:54:45;;;;;;;;;9.00;8.50;;;;;9.03;79.90;101537.88;5074464;28;45580;-81
2021/12/12 01:57:15;;;;;;;;;10.50;9.50;;;;;9.11;80.06;101554.91;5074349;28;46196;-80
2021/12/12 01:59:43;;;;;;;;;7.50;7.50;;;;;9.08;80.31;101544.56;5073395;28;45856;-80
2021/12/12 02:02:18;;;;;;;;;9.50;7.00;;;;;9.13;80.18;101552.19;5075033;28;45729;-80
2021/12/12 02:04:48;;;;;;;;;9.25;9.25;;;;;9.14;80.03;101559.09;5074489;28;45848;-81
2021/12/12 02:07:17;;;;;;;;;7.25;7.25;;;;;9.15;80.06;101560.81;5074089;27;47245;-79
2021/12/12 02:09:43;;;;;;;;;9.50;9.00;;;;;9.10;80.17;101552.34;5074452;28;45849;-81
2021/12/12 02:12:10;;;;;;;;;10.00;10.00;;;;;9.15;80.18;101566.88;5074437;28;45617;-80
2021/12/12 02:14:43;;;;;;;;;8.00;6.75;;;;;9.18;80.13;101563.25;5074439;28;46836;-80
2021/12/12 02:17:28;;;;;;;;;10.75;8.00;;;;;9.16;80.45;101565.97;5074102;28;46962;-79
2021/12/12 02:20:15;;;;;;;;;8.50;7.75;;;;;9.04;80.29;101547.41;5072955;27;45747;-81
2021/12/12 02:36:13;;;;;;;;;6.75;5.75;;;;;9.26;80.20;101574.19;5073916;28;45635;-80
2021/12/12 02:42:08;;;;;;;;;3.50;3.50;;;;;9.29;80.33;101581.88;5076382;28;45582;-79
2021/12/12 02:44:36;;;;;;;;;6.00;5.00;;;;;9.30;80.23;101580.09;5078080;28;45681;-81
2021/12/12 02:47:10;;;;;;;;;5.00;5.00;;;;;9.32;80.36;101583.50;5077534;28;47275;-81
2021/12/12 02:49:42;;;;;;;;;6.75;5.75;;;;;9.33;80.38;101593.88;5075953;28;46503;-81
2021/12/12 02:52:17;;;;;;;;;7.50;6.50;;;;;9.36;80.39;101590.25;5074150;28;45613;-81
2021/12/12 02:58:20;;;;;;;;;4.50;4.50;;;;;9.28;80.80;101578.41;5073515;28;45600;-81
2021/12/12 03:00:54;;;;;;;;;3.50;3.50;;;;;9.36;80.76;101585.88;5073731;28;46474;-81
2021/12/12 03:03:21;;;;;;;;;5.25;3.25;;;;;9.34;80.39;101579.03;5073858;28;45697;-81
2021/12/12 03:05:47;;;;;;;;;4.25;3.00;;;;;9.36;80.74;101585.88;5073581;28;45760;-80
2021/12/12 03:08:14;;;;;;;;;5.00;4.75;;;;;9.36;80.88;101585.03;5073129;28;47507;-80
2021/12/12 03:14:01;;;;;;;;;5.00;3.75;;;;;9.35;80.91;101584.19;5073587;28;45626;-80
2021/12/12 03:16:29;;;;;;;;;6.00;4.25;;;;;9.39;81.04;101601.44;5073686;28;45824;-80
2021/12/12 03:18:55;;;;;;;;;6.00;5.25;;;;;9.23;80.85;101572.56;5073746;28;45671;-80
2021/12/12 03:21:34;;;;;;;;;4.50;4.50;;;;;9.41;80.91;101598.72;5073281;28;46282;-79
2021/12/12 03:24:05;;;;;;;;;4.25;3.25;;;;;9.39;80.63;101585.75;5073748;28;45717;-80
2021/12/12 03:26:31;;;;;;;;;4.00;4.00;;;;;9.44;80.89;101593.34;5072071;28;45971;-80
2021/12/12 03:28:59;;;;;;;;;5.75;4.75;;;;;9.45;81.00;101595.00;5073087;28;47142;-79
2021/12/12 03:31:30;;;;;;;;;6.00;4.00;;;;;9.45;80.90;101584.56;5073429;28;45577;-81
2021/12/12 03:33:56;;;;;;;;;3.00;3.00;;;;;9.47;81.00;101599.25;5072875;28;45776;-81
2021/12/12 03:36:23;;;;;;;;;2.50;2.50;;;;;9.48;80.86;101602.72;5073505;28;45847;-80
2021/12/12 03:38:57;;;;;;;;;5.00;4.75;;;;;9.49;81.16;101596.56;5073917;28;46754;-79
2021/12/12 03:41:30;;;;;;;;;5.75;4.50;;;;;9.41;81.00;101586.47;5075469;28;48504;-81
2021/12/12 03:44:00;;;;;;;;;5.75;4.25;;;;;9.49;80.85;101594.81;5076540;28;45710;-80
2021/12/12 03:46:27;;;;;;;;;3.75;3.75;;;;;9.49;80.76;101597.41;5076941;28;45848;-80
2021/12/12 03:48:54;;;;;;;;;4.75;4.25;;;;;9.50;81.04;101604.31;5076540;28;45665;-80
2021/12/12 03:51:22;;;;;;;;;7.00;5.00;;;;;9.45;81.03;101592.41;5076514;28;45802;-80
2021/12/12 03:53:49;;;;;;;;;6.75;6.50;;;;;9.51;81.21;101598.16;5076502;27;45578;-79
2021/12/12 03:56:15;;;;;;;;;7.00;6.00;;;;;9.43;81.00;101573.34;5076405;28;45509;-80
2021/12/12 03:58:42;;;;;;;;;6.50;5.75;;;;;9.54;81.22;101599.81;5109474;27;46347;-79
2021/12/12 04:01:23;;;;;;;;;6.75;6.00;;;;;9.48;81.14;101582.66;5076616;28;45593;-80
2021/12/12 04:03:55;;;;;;;;;8.25;5.50;;;;;9.54;81.22;101594.56;5076846;28;45576;-79
2021/12/12 04:06:25;;;;;;;;;6.75;6.00;;;;;9.57;81.11;101605.72;5076508;28;45656;-79
2021/12/12 04:08:52;;;;;;;;;8.75;7.25;;;;;9.57;81.26;101597.00;5075492;28;46478;-82
2021/12/12 04:14:39;;;;;;;;;10.00;9.25;;;;;9.51;81.25;101581.63;5080808;28;45834;-80
2021/12/12 04:17:11;;;;;;;;;8.00;7.00;;;;;9.56;81.43;101604.00;5080603;28;45735;-80
2021/12/12 04:19:37;;;;;;;;;7.75;7.00;;;;;9.56;81.34;101606.63;5077041;28;46604;-81
2021/12/12 04:22:04;;;;;;;;;10.50;9.25;;;;;9.57;81.42;101610.94;5076231;28;47366;-81
2021/12/12 04:24:34;;;;;;;;;12.25;11.75;;;;;9.42;81.36;101579.50;5076000;28;45817;-81
2021/12/12 04:27:00;;;;;;;;;10.75;10.25;;;;;9.48;81.42;101585.25;5076768;28;45885;-79
2021/12/12 04:29:38;;;;;;;;;10.75;10.50;;;;;9.62;81.17;101608.09;5076619;28;45604;-80
2021/12/12 04:32:16;;;;;;;;;8.25;7.50;;;;;9.54;81.36;101599.81;5076337;28;46659;-80
2021/12/12 04:34:48;;;;;;;;;10.00;8.00;;;;;9.65;81.49;101614.03;5076920;28;45943;-81
2021/12/12 04:37:15;;;;;;;;;11.50;10.50;;;;;9.66;81.30;101622.72;5080216;28;45517;-79
2021/12/12 04:39:47;;;;;;;;;9.25;8.75;;;;;9.66;81.36;101623.53;5080691;28;45516;-79
2021/12/12 04:42:20;;;;;;;;;11.00;9.00;;;;;9.68;81.46;101628.72;5082189;28;45671;-80
2021/12/12 04:44:55;;;;;;;;;9.75;7.50;;;;;9.69;81.39;101626.03;5077248;28;45606;-80
2021/12/12 04:50:28;;;;;;;;;8.00;7.00;;;;;9.72;81.45;101630.25;5074844;28;46262;-79
2021/12/12 04:52:59;;;;;;;;;14.75;11.00;;;;;9.74;81.42;101630.16;5075830;28;45999;-80
2021/12/12 04:55:36;;;;;;;;;10.50;8.50;;;;;9.74;81.39;101627.56;5075692;28;45628;-80
2021/12/12 04:58:25;;;;;;;;;12.50;8.00;;;;;9.76;81.52;101636.19;5075837;28;45740;-80
2021/12/12 05:00:56;;;;;;;;;11.75;8.50;;;;;9.72;81.55;101627.63;5075285;28;46643;-81
2021/12/12 05:03:25;;;;;;;;;12.50;8.00;;;;;9.78;81.62;101636.94;5075678;28;45934;-81
2021/12/12 05:06:09;;;;;;;;;13.50;7.25;;;;;9.79;81.57;101643.88;5075440;28;45866;-80
2021/12/12 05:08:51;;;;;;;;;9.50;9.00;;;;;9.72;81.56;101630.25;5075990;28;45741;-80
2021/12/12 05:11:24;;;;;;;;;10.75;10.75;;;;;9.71;81.41;101630.34;5075457;28;45856;-82
2021/12/12 05:13:55;;;;;;;;;10.00;7.50;;;;;9.79;81.57;101633.41;5075434;28;45567;-81
2021/12/12 05:16:29;;;;;;;;;9.50;8.00;;;;;9.80;81.68;101637.72;5075594;28;45779;-83
2021/12/12 05:19:06;;;;;;;;;12.50;11.00;;;;;9.81;81.75;101645.50;5075988;28;45586;-80
2021/12/12 05:21:36;;;;;;;;;12.50;11.00;;;;;9.87;81.47;101646.94;5075360;28;46778;-81
2021/12/12 05:24:05;;;;;;;;;12.25;11.00;;;;;9.79;81.47;101629.00;5075116;28;46154;-80
2021/12/12 05:26:36;;;;;;;;;12.75;8.25;;;;;9.87;81.94;101649.56;5075290;28;45766;-80
2021/12/12 05:29:12;;;;;;;;;11.50;9.00;;;;;9.75;81.82;101627.47;5074816;28;45977;-80
2021/12/12 05:31:38;;;;;;;;;12.50;9.75;;;;;9.87;81.70;101647.78;5075990;28;46663;-80
2021/12/12 05:34:05;;;;;;;;;11.50;11.00;;;;;9.83;81.70;101648.84;5075328;28;45779;-82
2021/12/12 05:36:33;;;;;;;;;9.00;7.75;;;;;9.87;81.84;101653.03;5075718;28;45896;-80
2021/12/12 05:39:00;;;;;;;;;10.25;8.25;;;;;9.90;81.78;101657.25;5077959;28;45720;-80
2021/12/12 05:41:26;;;;;;;;;7.75;7.00;;;;;9.90;82.04;101658.09;5080597;28;45746;-80
2021/12/12 05:43:56;;;;;;;;;10.50;8.75;;;;;9.89;81.70;101659.00;5080672;28;45680;-80
2021/12/12 05:46:23;;;;;;;;;11.25;8.25;;;;;9.92;82.02;101669.34;5079012;28;45604;-79
2021/12/12 05:48:51;;;;;;;;;10.25;9.75;;;;;9.90;81.84;101659.88;5077827;28;45869;-80
2021/12/12 05:51:18;;;;;;;;;11.75;10.25;;;;;9.87;81.98;101649.56;5075359;28;45923;-79
2021/12/12 05:53:44;;;;;;;;;10.00;9.25;;;;;9.94;81.83;101667.47;5075049;28;46060;-79
2021/12/12 05:56:09;;;;;;;;;10.75;9.00;;;;;9.93;81.80;101663.16;5074509;27;45830;-79
2021/12/12 05:58:37;;;;;;;;;11.50;8.50;;;;;10.01;81.63;101670.63;5074950;28;45529;-79
2021/12/12 06:01:10;;;;;;;;;12.75;12.00;;;;;10.03;81.65;101676.66;5074798;28;46793;-81
2021/12/12 06:03:39;;;;;;;;;8.50;8.25;;;;;10.01;81.72;101673.25;5074504;28;46093;-80
2021/12/12 06:06:09;;;;;;;;;12.50;10.75;;;;;10.00;81.86;101661.94;5074092;28;45635;-81
2021/12/12 06:08:36;;;;;;;;;10.75;9.00;;;;;9.98;81.79;101663.78;5074485;28;45954;-81
2021/12/12 06:11:02;;;;;;;;;10.25;8.50;;;;;10.02;81.78;101669.72;5090128;27;47508;-80
2021/12/12 06:13:29;;;;;;;;;12.50;11.50;;;;;10.08;81.59;101683.34;5075010;28;46237;-79
2021/12/12 06:15:56;;;;;;;;;10.00;8.00;;;;;10.08;81.94;101683.34;5074931;28;45663;-81
2021/12/12 06:18:24;;;;;;;;;11.75;9.00;;;;;10.07;81.89;101697.34;5074727;28;45815;-80
2021/12/12 06:20:50;;;;;;;;;9.00;8.25;;;;;10.06;82.10;101703.50;5074528;28;46762;-80
2021/12/12 06:23:16;;;;;;;;;9.00;9.00;;;;;10.04;82.00;101694.88;5074339;28;46028;-80
2021/12/12 06:25:43;;;;;;;;;12.00;9.00;;;;;10.00;82.22;101689.88;5073562;28;46088;-80
2021/12/12 06:28:12;;;;;;;;;9.50;9.25;;;;;10.01;81.92;101687.19;5074560;28;45550;-80
2021/12/12 06:30:43;;;;;;;;;7.75;7.25;;;;;10.03;81.79;101689.75;5074019;28;45565;-80
2021/12/12 06:33:10;;;;;;;;;11.00;7.00;;;;;10.08;81.95;101700.81;5106625;27;47790;-80
2021/12/12 06:35:36;;;;;;;;;13.00;9.00;;;;;10.08;82.11;101706.91;5074620;27;45690;-80
2021/12/12 06:38:06;;;;;;;;;7.00;7.00;;;;;10.04;82.23;101700.09;5074950;27;45722;-80
2021/12/12 06:40:33;;;;;;;;;8.75;6.50;;;;;10.08;82.33;101711.28;5074428;27;45687;-81
2021/12/12 06:43:00;;;;;;;;;13.25;9.50;;;;;10.07;82.13;101712.22;5074393;28;46278;-79
2021/12/12 06:45:26;;;;;;;;;7.75;7.75;;;;;10.03;82.30;101703.69;5074659;28;45803;-81
2021/12/12 06:47:53;;;;;;;;;10.00;7.00;;;;;10.05;82.49;101714.03;5073286;28;45562;-81
2021/12/12 06:50:20;;;;;;;;;9.75;8.00;;;;;10.02;82.35;101708.97;5074351;28;45580;-81
2021/12/12 06:52:46;;;;;;;;;8.00;7.00;;;;;10.06;82.44;101726.22;5074318;28;46216;-79
2021/12/12 06:55:13;;;;;;;;;10.50;8.75;;;;;9.96;82.55;101706.66;5074252;28;45495;-81
2021/12/12 06:57:40;;;;;;;;;7.00;7.00;;;;;10.05;82.38;101721.91;5074239;28;45560;-81
2021/12/12 07:00:10;;;;;;;;;6.50;6.00;;;;;10.04;82.43;101728.91;5074007;28;46717;-80
2021/12/12 07:02:36;;;;;;;;;12.25;8.25;;;;;9.99;82.74;101720.44;5106518;27;45687;-80
2021/12/12 07:05:05;;;;;;;;;11.00;8.00;;;;;10.01;82.71;101736.06;5074557;28;45652;-80
2021/12/12 07:07:30;;;;;;;;;10.25;7.50;;;;;10.00;82.72;101735.22;5076892;28;45854;-80
2021/12/12 07:09:58;;;;;;;;;8.00;7.00;;;;;9.94;82.82;101739.91;5078285;28;46527;-80
2021/12/12 07:15:53;;;;;;;;;8.25;7.50;;;;;9.98;82.87;101742.34;5080877;28;45774;-80
2021/12/12 07:18:23;;;;;;;;;11.25;8.00;;;;;9.97;82.84;101747.63;5081034;28;45577;-79
2021/12/12 07:20:52;;;;;;;;;7.00;5.50;;;;;9.96;82.92;101743.31;5080349;28;46814;-81
2021/12/12 07:23:18;;;;;;;;;8.00;6.25;;;;;9.88;82.75;101725.38;5078081;27;46405;-80
2021/12/12 07:25:44;;;;;;;;;7.00;7.00;;;;;9.96;83.25;101746.78;5077332;28;45640;-80
2021/12/12 07:28:11;;;;;;;;;8.00;6.75;;;;;9.98;83.23;101747.56;5077483;27;45632;-80
2021/12/12 07:30:37;;;;;;;;;7.00;6.00;;;;;9.99;82.94;101751.00;5077331;28;45612;-80
2021/12/12 07:33:04;;;;;;;;;7.50;6.75;;;;;10.01;83.39;101751.78;5077292;28;46256;-81
2021/12/12 07:35:34;;;;;;;;;8.00;7.25;;;;;10.03;83.34;101758.66;5075176;28;45889;-80
2021/12/12 07:38:00;;;;;;;;;8.00;6.50;;;;;10.04;83.25;101757.69;5077802;28;45681;-81
2021/12/12 07:40:26;;;;;;;;;7.00;6.75;;;;;9.91;83.17;101737.47;5077324;28;46634;-79
2021/12/12 07:46:13;;;;;;;;;10.25;8.00;;;;;10.01;83.06;101751.78;5076843;28;45963;-81
2021/12/12 07:48:42;;;;;;;;;7.50;6.75;;;;;10.10;83.17;101767.03;5077807;28;45794;-81
2021/12/12 07:51:08;;;;;;;;;6.75;6.00;;;;;10.09;83.08;101766.19;5110044;27;47454;-81
2021/12/12 07:53:34;;;;;;;;;8.75;8.25;;;;;10.06;82.93;101760.25;5077008;28;45558;-81
2021/12/12 07:56:00;;;;;;;;;8.25;7.50;;;;;10.11;83.05;101766.09;5077243;27;45641;-80
2021/12/12 07:58:26;;;;;;;;;12.25;8.25;;;;;10.18;82.96;101770.16;5077402;28;45871;-80
2021/12/12 08:00:55;;;;;;;;;7.75;6.75;;;;;10.19;83.05;101766.63;5077192;28;48266;-79
2021/12/12 08:03:25;;;;;;;;;7.00;6.00;;;;;10.20;83.00;101767.47;5077298;28;45585;-81
2021/12/12 08:05:51;;;;;;;;;8.75;7.75;;;;;10.20;83.01;101772.69;5076688;28;45751;-80
2021/12/12 08:08:18;;;;;;;;;5.00;5.00;;;;;10.21;83.03;101780.44;5077266;27;45612;-80
2021/12/12 08:10:46;;;;;;;;;6.00;5.50;;;;;10.16;82.78;101763.25;5077044;28;46948;-80
2021/12/12 08:13:14;;;;;;;;;6.75;6.00;;;;;10.23;82.97;101767.28;5076838;28;46090;-80
2021/12/12 08:15:40;;;;;;;;;8.00;6.00;;;;;10.26;83.17;101780.22;5076337;28;45685;-80
2021/12/12 08:18:07;;;;;;;;;6.50;5.50;;;;;10.20;83.22;101764.84;5077235;28;45774;-82
2021/12/12 08:20:35;;;;;;;;;9.00;7.75;;;;;10.29;83.09;101780.94;5076488;28;46167;-81
2021/12/12 08:23:02;;;;;;;;;8.25;6.50;;;;;10.32;83.19;101783.38;5077060;27;45999;-80
2021/12/12 08:25:28;;;;;;;;;7.25;7.00;;;;;10.31;83.00;101781.69;5077245;28;45837;-80
2021/12/12 08:31:16;;;;;;;;;7.50;6.50;;;;;10.30;82.96;101776.53;5077178;28;45746;-81
2021/12/12 08:33:42;;;;;;;;;7.00;6.25;;;;;10.39;83.46;101791.78;5077060;28;45679;-79
2021/12/12 08:36:10;;;;;;;;;7.00;6.50;;;;;10.39;83.34;101792.63;5114009;27;45839;-80
2021/12/12 08:38:36;;;;;;;;;8.00;7.00;;;;;10.41;83.44;101795.19;5081565;28;45507;-82
2021/12/12 08:41:04;;;;;;;;;7.00;6.50;;;;;10.42;83.32;101800.31;5081777;28;45558;-80
2021/12/12 08:43:30;;;;;;;;;4.50;4.50;;;;;10.46;83.33;101801.88;5078226;28;46174;-80
2021/12/12 08:46:01;;;;;;;;;8.00;7.00;;;;;10.42;83.33;101789.84;5076510;28;45676;-81
2021/12/12 08:48:30;;;;;;;;;6.25;6.00;;;;;10.45;83.02;101784.47;5076297;28;45507;-81
2021/12/12 08:51:05;;;;;;;;;7.00;6.00;;;;;10.50;83.19;101797.31;5076251;28;45660;-80
2021/12/12 08:53:32;;;;;;;;;8.25;7.50;;;;;10.52;83.18;101806.81;5076012;28;46437;-79
2021/12/12 08:55:58;;;;;;;;;7.00;6.00;;;;;10.55;83.32;101802.31;5075887;28;45781;-81
2021/12/12 09:01:49;;;;;;;;;6.00;5.50;;;;;10.61;83.39;101807.25;5075648;28;46217;-79
2021/12/12 09:04:15;;;;;;;;;7.00;6.00;;;;;10.55;83.17;101794.44;5074475;28;47284;-80
2021/12/12 09:06:55;;;;;;;;;8.00;6.00;;;;;10.62;83.27;101804.53;5073294;28;45913;-75
2021/12/12 09:09:42;;;;;;;;;6.75;6.75;;;;;10.64;83.24;101813.16;5074697;28;45729;-74
2021/12/12 09:12:19;;;;;;;;;6.00;5.50;;;;;10.69;83.23;101818.19;5074104;28;45581;-75
2021/12/12 09:14:55;;;;;;;;;4.00;4.00;;;;;10.73;83.65;101830.19;5072966;28;46082;-77
2021/12/12 09:17:21;;;;;;;;;6.50;4.50;;;;;10.73;83.49;101830.19;5074585;28;45677;-75
2021/12/12 09:19:56;;;;;;;;;7.75;6.00;;;;;10.73;83.28;101822.34;5074432;28;45544;-76
2021/12/12 09:22:33;;;;;;;;;3.00;3.00;;;;;10.76;83.46;101828.25;5074735;28;47525;-74
2021/12/12 09:25:15;;;;;;;;;10.00;6.50;;;;;10.81;83.17;101822.75;5074373;28;47135;-78
2021/12/12 09:27:51;;;;;;;;;7.00;6.00;;;;;10.85;83.12;101825.13;5074532;28;45531;-74
2021/12/12 09:30:23;;;;;;;;;10.25;8.25;;;;;10.89;83.28;101824.06;5074835;28;45551;-74
2021/12/12 09:33:17;;;;;;;;;4.00;4.00;;;;;10.92;83.17;101826.53;5073621;28;45671;-76
2021/12/12 09:35:50;;;;;;;;;7.50;6.00;;;;;10.97;83.23;101828.88;5072436;28;46326;-74
2021/12/12 09:38:23;;;;;;;;;6.00;4.00;;;;;10.98;83.16;101825.34;5074088;28;45635;-76
2021/12/12 09:44:30;;;;;;;;;6.00;6.00;;;;;11.04;83.30;101826.78;5074280;28;46233;-74
2021/12/12 09:47:30;;;;;;;;;6.50;6.00;;;;;11.06;83.51;101824.94;5074565;28;46057;-73
2021/12/12 09:53:42;;;;;;;;;6.00;6.00;;;;;11.13;83.34;101824.53;5074685;28;45456;-77
2021/12/12 10:03:12;;;;;;;;;6.00;4.00;;;;;11.24;83.24;101830.03;5076318;28;45516;-76
2021/12/12 10:05:54;;;;;;;;;4.25;4.25;;;;;11.28;83.18;101820.25;5076453;28;45683;-78
2021/12/12 10:08:42;;;;;;;;;5.25;5.25;;;;;11.33;83.17;101829.56;5074825;28;46692;-74
2021/12/12 10:11:18;;;;;;;;;6.25;4.75;;;;;11.36;83.15;101836.41;5073722;28;46501;-77
2021/12/12 10:13:45;;;;;;;;;5.25;5.25;;;;;11.39;83.11;101827.53;5073739;27;45901;-77
2021/12/12 10:16:23;;;;;;;;;7.75;4.75;;;;;11.44;83.33;101828.97;5073645;28;45765;-76
2021/12/12 10:19:01;;;;;;;;;7.75;5.50;;;;;11.50;82.91;101828.59;5073738;28;47631;-75
2021/12/12 10:21:51;;;;;;;;;7.50;6.50;;;;;11.56;82.95;101833.50;5073613;28;45922;-75
2021/12/12 10:24:46;;;;;;;;;7.50;4.00;;;;;11.60;82.75;101832.44;5073381;28;45682;-77
2021/12/12 10:30:43;;;;;;;;;7.25;5.25;;;;;11.63;82.82;101834.88;5071120;28;45702;-75
2021/12/12 10:33:14;;;;;;;;;8.00;7.00;;;;;11.72;82.84;101834.34;5071125;28;46039;-77
2021/12/12 10:36:01;;;;;;;;;5.50;4.50;;;;;11.74;82.98;101835.16;5070410;28;45684;-77
2021/12/12 10:38:52;;;;;;;;;5.50;4.50;;;;;11.80;83.05;101843.63;5070909;28;45680;-76
2021/12/12 10:41:25;;;;;;;;;7.50;5.25;;;;;11.82;82.65;101836.50;5069900;28;46604;-77
2021/12/12 10:47:17;;;;;;;;;4.75;4.75;;;;;11.91;82.67;101835.97;5070432;28;46094;-78
2021/12/12 10:50:16;;;;;;;;;7.75;7.25;;;;;11.96;82.68;101837.41;5069890;28;45832;-77
2021/12/12 10:52:53;;;;;;;;;8.25;7.00;;;;;11.97;82.65;101833.84;5070632;28;47651;-78
2021/12/12 10:55:24;;;;;;;;;8.00;5.00;;;;;12.07;82.50;101839.41;5070270;28;46358;-75
2021/12/12 10:58:11;;;;;;;;;8.50;7.00;;;;;12.11;82.42;101841.78;5070884;28;45903;-79
2021/12/12 11:00:46;;;;;;;;;8.25;8.00;;;;;12.13;82.45;101829.41;5071426;28;45777;-77
2021/12/12 11:03:22;;;;;;;;;8.50;7.50;;;;;12.14;82.58;101830.25;5071013;28;46650;-79
2021/12/12 11:05:55;;;;;;;;;9.00;6.50;;;;;12.24;82.52;101846.34;5072800;28;46206;-81
2021/12/12 11:08:42;;;;;;;;;6.50;5.50;;;;;12.26;82.33;101841.81;5073457;28;45905;-74
2021/12/12 11:11:20;;;;;;;;;5.75;4.25;;;;;12.29;82.71;101841.66;5073257;28;45755;-75
2021/12/12 11:13:51;;;;;;;;;8.00;5.75;;;;;12.30;81.95;101846.81;5072425;28;47508;-74
2021/12/12 11:16:33;;;;;;;;;7.75;6.50;;;;;12.31;82.42;101840.63;5072862;28;46341;-75
2021/12/12 11:19:02;;;;;;;;;8.00;8.00;;;;;12.31;82.49;101839.78;5073110;28;45788;-74
2021/12/12 11:21:33;;;;;;;;;8.75;5.75;;;;;12.30;82.20;101836.31;5073360;27;46062;-76
2021/12/12 11:24:04;;;;;;;;;8.25;6.25;;;;;12.35;82.18;101843.94;5072674;28;46656;-78
2021/12/12 11:26:46;;;;;;;;;7.50;7.00;;;;;12.35;82.25;101838.66;5073786;27;46063;-80
2021/12/12 11:29:18;;;;;;;;;6.50;5.25;;;;;12.42;82.15;101842.59;5075700;27;45639;-77
2021/12/12 11:31:43;;;;;;;;;6.75;5.00;;;;;12.44;81.99;101849.47;5075059;28;45592;-79
2021/12/12 11:34:09;;;;;;;;;7.75;7.00;;;;;12.41;82.25;101839.16;5075572;28;45873;-76
2021/12/12 11:36:55;;;;;;;;;6.00;6.00;;;;;12.49;82.26;101847.44;5072972;28;46307;-78
2021/12/12 11:39:32;;;;;;;;;5.25;5.00;;;;;12.54;81.88;101842.75;5073201;28;45628;-79
2021/12/12 11:42:06;;;;;;;;;8.25;7.25;;;;;12.58;82.05;101838.97;5106232;27;45953;-77
2021/12/12 11:45:17;;;;;;;;;77.00;56.50;;;;;12.63;82.12;101843.16;5071156;28;46574;-79
2021/12/12 11:48:04;;;;;;;;;6.25;5.00;;;;;12.67;82.13;101836.75;5070446;28;46367;-77
2021/12/12 11:50:38;;;;;;;;;9.00;8.00;;;;;12.69;81.90;101837.50;5070454;28;45769;-76
2021/12/12 11:53:12;;;;;;;;;26.25;21.75;;;;;12.72;81.79;101837.31;5053274;28;45812;-76
2021/12/12 11:55:44;;;;;;;;;44.25;34.00;;;;;12.75;81.64;101832.72;5069368;28;46629;-75
2021/12/12 12:01:59;;;;;;;;;9.00;8.25;;;;;12.86;81.71;101834.69;5072956;28;46077;-77
2021/12/12 12:04:43;;;;;;;;;16.75;13.00;;;;;12.90;81.71;101838.84;5073648;28;45831;-76
2021/12/12 12:07:36;;;;;;;;;7.00;7.00;;;;;12.92;81.89;101835.16;5073287;28;45802;-76
2021/12/12 12:10:13;;;;;;;;;8.00;6.00;;;;;12.97;81.85;101824.34;5033038;28;46027;-77
2021/12/12 12:12:57;;;;;;;;;4.50;4.50;;;;;12.99;81.55;101838.28;5015613;28;46138;-77
2021/12/12 12:16:10;;;;;;;;;9.00;8.75;;;;;13.01;81.83;101833.75;5032507;28;45839;-77
2021/12/12 12:18:46;;;;;;;;;9.50;7.75;;;;;13.03;81.77;101831.88;4973059;28;47687;-78
2021/12/12 12:21:24;;;;;;;;;9.25;7.25;;;;;13.04;81.78;101831.78;4973511;28;46277;-78
2021/12/12 12:26:51;;;;;;;;;10.75;9.00;;;;;13.01;81.43;101825.84;4953885;28;45646;-78
2021/12/12 12:29:28;;;;;;;;;9.00;8.50;;;;;13.07;81.51;101835.16;4953917;28;46436;-77
2021/12/12 12:32:15;;;;;;;;;12.00;10.75;;;;;13.08;81.68;101832.44;4954753;28;45905;-80
2021/12/12 12:35:18;;;;;;;;;9.75;9.25;;;;;13.11;81.44;101842.78;4953428;28;45887;-80
2021/12/12 12:38:04;;;;;;;;;9.25;7.25;;;;;13.15;81.69;101833.78;4954017;28;45785;-79
2021/12/12 12:40:49;;;;;;;;;10.50;10.00;;;;;13.16;81.65;101829.38;4958888;28;45770;-79
2021/12/12 12:43:35;;;;;;;;;5.25;5.00;;;;;13.17;81.39;101828.44;4958997;28;46668;-78
2021/12/12 12:46:38;;;;;;;;;6.00;5.00;;;;;13.17;81.57;101829.25;4962296;28;46051;-80
2021/12/12 12:49:06;;;;;;;;;6.00;5.00;;;;;13.19;81.43;101834.44;4996699;28;45896;-76
2021/12/12 12:51:50;;;;;;;;;8.00;6.25;;;;;13.20;81.62;101833.50;4994753;28;45702;-75
2021/12/12 12:54:27;;;;;;;;;8.00;8.00;;;;;13.22;81.55;101837.75;5008915;28;46180;-76
2021/12/12 12:57:17;;;;;;;;;9.00;9.00;;;;;13.24;81.05;101833.22;5077443;28;45786;-76
2021/12/12 13:00:08;;;;;;;;;8.75;8.00;;;;;13.25;81.25;101832.28;5075943;28;45583;-76
2021/12/12 13:03:03;;;;;;;;;6.75;6.00;;;;;13.26;81.52;101828.72;5075732;28;46312;-76